createdAt,value
2016-11-20T00:00:08.579Z,6.48
2016-11-20T00:01:08.831Z,6.37
2016-11-20T00:02:08.930Z,6.44
2016-11-20T00:03:09.293Z,6.45
2016-11-20T00:04:09.139Z,6.41
2016-11-20T00:05:08.858Z,6.35
2016-11-20T00:06:08.420Z,6.4
2016-11-20T00:07:09.250Z,6.41
2016-11-20T00:08:09.178Z,6.44
2016-11-20T00:09:08.739Z,6.47
2016-11-20T00:10:08.716Z,6.44
2016-11-20T00:11:08.471Z,6.26
2016-11-20T00:12:08.289Z,6.21
2016-11-20T00:13:08.900Z,6.27
2016-11-20T00:14:08.417Z,6.27
2016-11-20T00:15:09.005Z,6.27
2016-11-20T00:16:07.946Z,6.27
2016-11-20T00:17:08.439Z,6.29
2016-11-20T00:18:08.554Z,6.26
2016-11-20T00:19:08.203Z,6.18
2016-11-20T00:20:08.892Z,6.25
2016-11-20T00:21:08.170Z,6.27
2016-11-20T00:22:08.044Z,6.29
2016-11-20T00:23:08.020Z,6.29
2016-11-20T00:24:07.759Z,6.08
2016-11-20T00:25:08.761Z,6.25
2016-11-20T00:26:08.354Z,6.26
2016-11-20T00:27:07.931Z,6.37
2016-11-20T00:28:08.689Z,6.32
2016-11-20T00:29:08.287Z,6.32
2016-11-20T00:30:08.275Z,6.32
2016-11-20T00:31:07.599Z,6.26
2016-11-20T00:32:08.201Z,6.27
2016-11-20T00:33:07.943Z,6.29
2016-11-20T00:34:08.160Z,6.17
2016-11-20T00:35:08.529Z,6.18
2016-11-20T00:36:08.389Z,6.1
2016-11-20T00:37:07.440Z,6.1
2016-11-20T00:38:08.080Z,6
2016-11-20T00:39:07.010Z,5.98
2016-11-20T00:40:07.999Z,5.98
2016-11-20T00:41:08.393Z,6
2016-11-20T00:42:07.969Z,5.96
2016-11-20T00:43:07.939Z,5.95
2016-11-20T00:44:07.519Z,5.98
2016-11-20T00:45:08.290Z,5.98
2016-11-20T00:46:06.912Z,5.99
2016-11-20T00:47:07.749Z,5.95
2016-11-20T00:48:07.694Z,5.93
2016-11-20T00:49:07.790Z,5.95
2016-11-20T00:50:07.549Z,5.92
2016-11-20T00:51:07.812Z,5.89
2016-11-20T00:52:08.019Z,5.9
2016-11-20T00:53:07.840Z,5.74
2016-11-20T00:54:06.654Z,5.88
2016-11-20T00:55:07.714Z,5.9
2016-11-20T00:56:07.219Z,5.9
2016-11-20T00:57:07.499Z,5.81
2016-11-20T00:58:08.042Z,5.77
2016-11-20T00:59:07.310Z,5.88
2016-11-20T01:00:08.028Z,5.81
2016-11-20T01:01:07.388Z,5.86
2016-11-20T01:02:07.148Z,5.78
2016-11-20T01:03:07.219Z,5.86
2016-11-20T01:04:07.027Z,5.81
2016-11-20T01:05:07.472Z,5.73
2016-11-20T01:06:06.654Z,5.67
2016-11-20T01:07:07.052Z,5.83
2016-11-20T01:08:07.344Z,5.88
2016-11-20T01:09:07.711Z,5.78
2016-11-20T01:10:06.899Z,5.68
2016-11-20T01:11:06.882Z,5.67
2016-11-20T01:12:06.988Z,5.7
2016-11-20T01:13:06.799Z,5.74
2016-11-20T01:14:06.942Z,5.7
2016-11-20T01:15:07.171Z,5.71
2016-11-20T01:16:07.609Z,5.77
2016-11-20T01:17:07.402Z,5.77
2016-11-20T01:18:07.099Z,5.68
2016-11-20T01:19:06.650Z,5.78
2016-11-20T01:20:07.308Z,5.75
2016-11-20T01:21:06.719Z,5.74
2016-11-20T01:22:06.668Z,5.77
2016-11-20T01:23:06.979Z,5.89
2016-11-20T01:24:06.636Z,5.77
2016-11-20T01:25:06.683Z,5.88
2016-11-20T01:26:06.936Z,5.93
2016-11-20T01:27:06.816Z,5.9
2016-11-20T01:28:06.518Z,5.9
2016-11-20T01:29:06.158Z,5.93
2016-11-20T01:30:07.230Z,5.88
2016-11-20T01:31:06.151Z,5.78
2016-11-20T01:32:07.069Z,5.81
2016-11-20T01:33:06.428Z,5.92
2016-11-20T01:34:07.174Z,5.95
2016-11-20T01:35:07.118Z,5.9
2016-11-20T01:36:06.047Z,5.9
2016-11-20T01:37:07.060Z,5.93
2016-11-20T01:38:07.049Z,5.9
2016-11-20T01:39:05.634Z,5.85
2016-11-20T01:40:06.602Z,5.95
2016-11-20T01:41:06.553Z,5.9
2016-11-20T01:42:06.798Z,5.95
2016-11-20T01:43:06.515Z,5.95
2016-11-20T01:44:06.494Z,5.99
2016-11-20T01:45:05.741Z,5.93
2016-11-20T01:46:06.203Z,6
2016-11-20T01:47:06.843Z,6.03
2016-11-20T01:48:06.282Z,5.9
2016-11-20T01:49:05.489Z,5.95
2016-11-20T01:50:06.786Z,6
2016-11-20T01:51:06.599Z,5.9
2016-11-20T01:52:06.059Z,5.96
2016-11-20T01:53:06.252Z,5.9
2016-11-20T01:54:06.636Z,5.89
2016-11-20T01:55:05.971Z,5.92
2016-11-20T01:56:06.609Z,5.98
2016-11-20T01:57:06.571Z,5.99
2016-11-20T01:58:05.762Z,5.95
2016-11-20T01:59:05.659Z,5.99
2016-11-20T02:00:05.942Z,5.99
2016-11-20T02:01:05.766Z,5.98
2016-11-20T02:02:05.612Z,6.07
2016-11-20T02:03:06.320Z,5.95
2016-11-20T02:04:05.675Z,5.98
2016-11-20T02:05:05.600Z,5.96
2016-11-20T02:06:05.792Z,5.98
2016-11-20T02:07:05.793Z,6.07
2016-11-20T02:08:05.638Z,6.08
2016-11-20T02:09:05.653Z,6.11
2016-11-20T02:10:06.265Z,6.1
2016-11-20T02:11:05.846Z,6.13
2016-11-20T02:12:05.570Z,6.1
2016-11-20T02:13:06.300Z,6.11
2016-11-20T02:14:06.157Z,6.18
2016-11-20T02:15:05.306Z,6.13
2016-11-20T02:16:06.129Z,6.29
2016-11-20T02:17:05.444Z,6.25
2016-11-20T02:18:06.050Z,6.29
2016-11-20T02:19:05.477Z,6.22
2016-11-20T02:20:04.948Z,6.3
2016-11-20T02:21:05.976Z,6.29
2016-11-20T02:22:05.966Z,6.36
2016-11-20T02:23:05.525Z,6.35
2016-11-20T02:24:04.785Z,6.43
2016-11-20T02:25:05.090Z,6.36
2016-11-20T02:26:05.892Z,6.37
2016-11-20T02:27:05.846Z,6.37
2016-11-20T02:28:04.998Z,6.37
2016-11-20T02:29:04.761Z,6.41
2016-11-20T02:30:04.701Z,6.37
2016-11-20T02:31:05.371Z,6.35
2016-11-20T02:32:05.312Z,6.37
2016-11-20T02:33:05.352Z,6.41
2016-11-20T02:34:05.659Z,6.43
2016-11-20T02:35:05.008Z,6.45
2016-11-20T02:36:05.603Z,6.43
2016-11-20T02:37:04.987Z,6.44
2016-11-20T02:38:04.712Z,6.47
2016-11-20T02:39:04.421Z,6.45
2016-11-20T02:40:05.547Z,6.41
2016-11-20T02:41:05.131Z,6.45
2016-11-20T02:42:04.683Z,6.51
2016-11-20T02:43:05.541Z,6.4
2016-11-20T02:44:05.059Z,6.43
2016-11-20T02:45:05.531Z,6.41
2016-11-20T02:46:04.978Z,6.45
2016-11-20T02:47:04.334Z,6.44
2016-11-20T02:48:04.459Z,6.43
2016-11-20T02:49:04.168Z,6.37
2016-11-20T02:50:05.266Z,6.47
2016-11-20T02:51:04.866Z,6.44
2016-11-20T02:52:04.461Z,6.48
2016-11-20T02:53:04.501Z,6.51
2016-11-20T02:54:04.783Z,6.59
2016-11-20T02:55:04.712Z,6.55
2016-11-20T02:56:04.741Z,6.55
2016-11-20T02:57:05.164Z,6.55
2016-11-20T02:58:03.765Z,6.54
2016-11-20T02:59:04.688Z,6.47
2016-11-20T03:00:05.060Z,6.52
2016-11-20T03:01:05.032Z,6.55
2016-11-20T03:02:04.991Z,6.57
2016-11-20T03:03:04.962Z,6.55
2016-11-20T03:04:04.941Z,6.54
2016-11-20T03:05:04.301Z,6.54
2016-11-20T03:06:04.239Z,6.63
2016-11-20T03:07:03.885Z,6.57
2016-11-20T03:08:04.179Z,6.55
2016-11-20T03:09:04.402Z,6.6
2016-11-20T03:10:04.414Z,6.55
2016-11-20T03:11:04.772Z,6.59
2016-11-20T03:12:04.335Z,6.65
2016-11-20T03:13:04.346Z,6.63
2016-11-20T03:14:03.861Z,6.65
2016-11-20T03:15:04.652Z,6.62
2016-11-20T03:16:03.592Z,6.65
2016-11-20T03:17:04.240Z,6.55
2016-11-20T03:18:04.593Z,6.7
2016-11-20T03:19:03.783Z,6.62
2016-11-20T03:20:04.129Z,6.66
2016-11-20T03:21:03.852Z,6.66
2016-11-20T03:22:03.847Z,6.69
2016-11-20T03:23:03.685Z,6.57
2016-11-20T03:24:04.066Z,6.73
2016-11-20T03:25:04.026Z,6.66
2016-11-20T03:26:03.847Z,6.69
2016-11-20T03:27:03.779Z,6.66
2016-11-20T03:28:03.941Z,6.7
2016-11-20T03:29:03.922Z,6.72
2016-11-20T03:30:04.185Z,6.72
2016-11-20T03:31:04.169Z,6.65
2016-11-20T03:32:03.842Z,6.68
2016-11-20T03:33:03.372Z,6.69
2016-11-20T03:34:03.836Z,6.73
2016-11-20T03:35:03.588Z,6.68
2016-11-20T03:36:04.188Z,6.72
2016-11-20T03:37:03.745Z,6.75
2016-11-20T03:38:03.472Z,6.69
2016-11-20T03:39:03.469Z,6.69
2016-11-20T03:40:04.061Z,6.68
2016-11-20T03:41:02.993Z,6.72
2016-11-20T03:42:03.595Z,6.75
2016-11-20T03:43:03.600Z,6.77
2016-11-20T03:44:02.832Z,6.73
2016-11-20T03:45:02.802Z,6.84
2016-11-20T03:46:03.943Z,6.72
2016-11-20T03:47:03.486Z,6.7
2016-11-20T03:48:03.092Z,6.7
2016-11-20T03:49:02.979Z,6.66
2016-11-20T03:50:03.806Z,6.72
2016-11-20T03:51:03.806Z,6.68
2016-11-20T03:52:03.387Z,6.72
2016-11-20T03:53:03.491Z,6.69
2016-11-20T03:54:03.070Z,6.69
2016-11-20T03:55:02.398Z,6.6
2016-11-20T03:56:03.020Z,6.57
2016-11-20T03:57:03.029Z,6.59
2016-11-20T03:58:03.627Z,6.57
2016-11-20T03:59:02.912Z,6.55
2016-11-20T04:00:03.617Z,6.59
2016-11-20T04:01:03.441Z,6.59
2016-11-20T04:02:02.465Z,6.62
2016-11-20T04:03:02.787Z,6.55
2016-11-20T04:04:03.076Z,6.55
2016-11-20T04:05:02.815Z,6.51
2016-11-20T04:06:02.780Z,6.47
2016-11-20T04:07:02.998Z,6.5
2016-11-20T04:08:02.540Z,6.45
2016-11-20T04:09:02.730Z,6.44
2016-11-20T04:10:02.940Z,6.45
2016-11-20T04:11:02.902Z,6.45
2016-11-20T04:12:02.708Z,6.37
2016-11-20T04:13:02.231Z,6.3
2016-11-20T04:14:03.277Z,6.4
2016-11-20T04:15:03.247Z,6.35
2016-11-20T04:16:02.799Z,6.32
2016-11-20T04:17:02.522Z,6.4
2016-11-20T04:18:02.649Z,6.36
2016-11-20T04:19:03.133Z,6.37
2016-11-20T04:20:02.980Z,6.43
2016-11-20T04:21:02.660Z,6.36
2016-11-20T04:22:03.110Z,6.45
2016-11-20T04:23:03.056Z,6.43
2016-11-20T04:24:03.047Z,6.47
2016-11-20T04:25:02.840Z,6.47
2016-11-20T04:26:02.330Z,6.43
2016-11-20T04:27:02.798Z,6.5
2016-11-20T04:28:02.918Z,6.37
2016-11-20T04:29:02.920Z,6.48
2016-11-20T04:30:02.240Z,6.47
2016-11-20T04:31:02.470Z,6.5
2016-11-20T04:32:02.396Z,6.45
2016-11-20T04:33:02.650Z,6.65
2016-11-20T04:34:02.124Z,6.52
2016-11-20T04:35:02.748Z,6.54
2016-11-20T04:36:02.739Z,6.59
2016-11-20T04:37:02.550Z,6.59
2016-11-20T04:38:02.265Z,6.62
2016-11-20T04:39:02.249Z,6.68
2016-11-20T04:40:01.919Z,6.69
2016-11-20T04:41:02.606Z,6.63
2016-11-20T04:42:02.440Z,6.69
2016-11-20T04:43:02.402Z,6.6
2016-11-20T04:44:02.538Z,6.68
2016-11-20T04:45:02.527Z,6.6
2016-11-20T04:46:02.476Z,6.57
2016-11-20T04:47:02.458Z,6.6
2016-11-20T04:48:02.418Z,6.63
2016-11-20T04:49:01.756Z,6.59
2016-11-20T04:50:02.409Z,6.63
2016-11-20T04:51:02.384Z,6.65
2016-11-20T04:52:01.679Z,6.63
2016-11-20T04:53:02.298Z,6.57
2016-11-20T04:54:01.709Z,6.63
2016-11-20T04:55:02.255Z,6.69
2016-11-20T04:56:01.829Z,6.57
2016-11-20T04:57:02.222Z,6.63
2016-11-20T04:58:01.775Z,6.66
2016-11-20T04:59:02.176Z,6.68
2016-11-20T05:00:02.158Z,6.57
2016-11-20T05:01:01.399Z,6.65
2016-11-20T05:02:01.949Z,6.63
2016-11-20T05:03:02.100Z,6.57
2016-11-20T05:04:01.394Z,6.66
2016-11-20T05:05:00.713Z,6.7
2016-11-20T05:06:01.858Z,6.72
2016-11-20T05:07:01.312Z,6.73
2016-11-20T05:08:00.873Z,6.75
2016-11-20T05:09:01.946Z,6.8
2016-11-20T05:10:01.882Z,6.77
2016-11-20T05:11:01.464Z,6.84
2016-11-20T05:12:01.852Z,6.84
2016-11-20T05:13:01.702Z,6.9
2016-11-20T05:14:01.809Z,6.88
2016-11-20T05:15:01.113Z,6.8
2016-11-20T05:16:01.089Z,6.83
2016-11-20T05:17:01.300Z,6.81
2016-11-20T05:18:01.691Z,6.94
2016-11-20T05:19:01.625Z,6.91
2016-11-20T05:20:01.243Z,7.01
2016-11-20T05:21:01.513Z,6.98
2016-11-20T05:22:01.604Z,7.08
2016-11-20T05:23:01.166Z,7.04
2016-11-20T05:24:01.572Z,7.11
2016-11-20T05:25:00.229Z,7.12
2016-11-20T05:26:01.516Z,7.09
2016-11-20T05:27:00.839Z,7.16
2016-11-20T05:28:01.044Z,7.16
2016-11-20T05:29:00.797Z,7.23
2016-11-20T05:30:01.279Z,7.24
2016-11-20T05:31:00.981Z,7.21
2016-11-20T05:32:00.958Z,7.2
2016-11-20T05:33:00.941Z,7.11
2016-11-20T05:34:00.767Z,7.11
2016-11-20T05:35:00.658Z,7.24
2016-11-20T05:36:01.125Z,7.17
2016-11-20T05:37:01.109Z,7.2
2016-11-20T05:38:00.565Z,7.2
2016-11-20T05:39:00.558Z,7.2
2016-11-20T05:40:01.015Z,7.2
2016-11-20T05:41:00.514Z,7.2
2016-11-20T05:42:00.765Z,7.17
2016-11-20T05:43:00.725Z,7.2
2016-11-20T05:43:59.784Z,7.27
2016-11-20T05:45:00.770Z,7.17
2016-11-20T05:46:00.645Z,7.16
2016-11-20T05:47:01.050Z,7.16
2016-11-20T05:48:00.266Z,7.23
2016-11-20T05:49:00.235Z,7.2
2016-11-20T05:50:00.932Z,7.23
2016-11-20T05:51:00.562Z,7.2
2016-11-20T05:52:00.075Z,7.27
2016-11-20T05:53:00.596Z,7.29
2016-11-20T05:54:00.448Z,7.29
2016-11-20T05:55:00.414Z,7.21
2016-11-20T05:56:00.782Z,7.26
2016-11-20T05:57:00.001Z,7.21
2016-11-20T05:57:59.464Z,7.3
2016-11-20T05:59:00.725Z,7.29
2016-11-20T06:00:00.155Z,7.34
2016-11-20T06:01:00.744Z,7.29
2016-11-20T06:02:00.501Z,7.31
2016-11-20T06:02:59.564Z,7.3
2016-11-20T06:04:00.621Z,7.31
2016-11-20T06:04:59.752Z,7.27
2016-11-20T06:06:00.205Z,7.35
2016-11-20T06:07:00.430Z,7.35
2016-11-20T06:08:00.504Z,7.44
2016-11-20T06:08:59.638Z,7.39
2016-11-20T06:10:00.464Z,7.45
2016-11-20T06:11:00.464Z,7.45
2016-11-20T06:11:59.350Z,7.48
2016-11-20T06:13:00.269Z,7.47
2016-11-20T06:13:59.634Z,7.44
2016-11-20T06:14:59.999Z,7.45
2016-11-20T06:15:59.535Z,7.42
2016-11-20T06:16:59.721Z,7.39
2016-11-20T06:17:59.628Z,7.44
2016-11-20T06:18:59.838Z,7.45
2016-11-20T06:19:59.579Z,7.45
2016-11-20T06:21:00.207Z,7.48
2016-11-20T06:22:00.213Z,7.47
2016-11-20T06:23:00.030Z,7.56
2016-11-20T06:23:59.736Z,7.56
2016-11-20T06:24:58.718Z,7.59
2016-11-20T06:26:00.072Z,7.6
2016-11-20T06:27:00.052Z,7.57
2016-11-20T06:27:59.212Z,7.48
2016-11-20T06:28:59.277Z,7.53
2016-11-20T06:29:59.986Z,7.57
2016-11-20T06:30:59.170Z,7.53
2016-11-20T06:31:58.640Z,7.55
2016-11-20T06:32:58.785Z,7.59
2016-11-20T06:33:59.786Z,7.41
2016-11-20T06:34:59.997Z,7.55
2016-11-20T06:35:58.396Z,7.53
2016-11-20T06:36:59.839Z,7.62
2016-11-20T06:37:59.801Z,7.57
2016-11-20T06:38:59.803Z,7.57
2016-11-20T06:39:59.339Z,7.56
2016-11-20T06:40:59.761Z,7.56
2016-11-20T06:41:59.725Z,7.73
2016-11-20T06:42:59.033Z,7.7
2016-11-20T06:43:58.600Z,7.72
2016-11-20T06:44:59.013Z,7.72
2016-11-20T06:45:58.957Z,7.75
2016-11-20T06:46:59.225Z,7.75
2016-11-20T06:47:59.163Z,7.76
2016-11-20T06:48:59.568Z,7.68
2016-11-20T06:49:58.747Z,7.76
2016-11-20T06:50:58.843Z,7.76
2016-11-20T06:51:59.068Z,7.76
2016-11-20T06:52:59.058Z,7.64
2016-11-20T06:53:59.437Z,7.7
2016-11-20T06:54:58.848Z,7.63
2016-11-20T06:55:58.732Z,7.55
2016-11-20T06:56:59.361Z,7.68
2016-11-20T06:57:59.373Z,7.64
2016-11-20T06:58:59.298Z,7.64
2016-11-20T06:59:58.618Z,7.56
2016-11-20T07:00:58.520Z,7.7
2016-11-20T07:01:58.282Z,7.64
2016-11-20T07:02:59.217Z,7.72
2016-11-20T07:03:58.138Z,7.67
2016-11-20T07:04:59.169Z,7.68
2016-11-20T07:05:58.438Z,7.73
2016-11-20T07:06:59.107Z,7.7
2016-11-20T07:07:59.112Z,7.75
2016-11-20T07:08:58.696Z,7.7
2016-11-20T07:09:58.401Z,7.62
2016-11-20T07:10:58.284Z,7.79
2016-11-20T07:11:58.171Z,7.78
2016-11-20T07:12:58.566Z,7.75
2016-11-20T07:13:58.543Z,7.75
2016-11-20T07:14:58.908Z,7.82
2016-11-20T07:15:58.504Z,7.86
2016-11-20T07:16:58.342Z,7.88
2016-11-20T07:17:58.474Z,7.88
2016-11-20T07:18:58.832Z,7.96
2016-11-20T07:19:58.416Z,7.96
2016-11-20T07:20:58.789Z,7.99
2016-11-20T07:21:58.114Z,7.96
2016-11-20T07:22:57.685Z,8.01
2016-11-20T07:23:57.672Z,7.96
2016-11-20T07:24:58.688Z,8.09
2016-11-20T07:25:58.699Z,8.07
2016-11-20T07:26:58.640Z,8.07
2016-11-20T07:27:57.990Z,8.16
2016-11-20T07:28:58.226Z,8.11
2016-11-20T07:29:58.428Z,8.16
2016-11-20T07:30:58.139Z,8.16
2016-11-20T07:31:57.740Z,8.16
2016-11-20T07:32:58.368Z,8.21
2016-11-20T07:33:58.369Z,8.22
2016-11-20T07:34:58.460Z,8.24
2016-11-20T07:35:58.036Z,8.25
2016-11-20T07:36:58.289Z,8.24
2016-11-20T07:37:57.744Z,8.24
2016-11-20T07:38:58.350Z,8.24
2016-11-20T07:39:56.885Z,8.18
2016-11-20T07:40:57.534Z,8.25
2016-11-20T07:41:57.647Z,8.27
2016-11-20T07:42:57.539Z,8.27
2016-11-20T07:43:58.294Z,8.24
2016-11-20T07:44:58.221Z,8.29
2016-11-20T07:45:58.249Z,8.21
2016-11-20T07:46:57.808Z,8.29
2016-11-20T07:47:56.703Z,8.27
2016-11-20T07:48:58.151Z,8.27
2016-11-20T07:49:57.451Z,8.32
2016-11-20T07:50:57.279Z,8.32
2016-11-20T07:51:57.670Z,8.34
2016-11-20T07:52:57.244Z,8.34
2016-11-20T07:53:57.248Z,8.34
2016-11-20T07:54:57.982Z,8.36
2016-11-20T07:55:58.009Z,8.32
2016-11-20T07:56:57.946Z,8.33
2016-11-20T07:57:58.038Z,8.37
2016-11-20T07:58:57.898Z,8.4
2016-11-20T07:59:57.976Z,8.34
2016-11-20T08:00:57.327Z,8.36
2016-11-20T08:01:56.781Z,8.36
2016-11-20T08:02:57.669Z,8.36
2016-11-20T08:03:57.881Z,8.34
2016-11-20T08:04:57.229Z,8.42
2016-11-20T08:05:57.699Z,8.39
2016-11-20T08:06:57.718Z,8.34
2016-11-20T08:07:57.056Z,8.39
2016-11-20T08:08:57.021Z,8.27
2016-11-20T08:09:57.669Z,8.24
2016-11-20T08:10:57.628Z,8.34
2016-11-20T08:11:56.939Z,8.45
2016-11-20T08:12:57.554Z,8.24
2016-11-20T08:13:57.108Z,8.34
2016-11-20T08:14:57.547Z,8.24
2016-11-20T08:15:56.283Z,8.34
2016-11-20T08:16:57.501Z,8.34
2016-11-20T08:17:57.470Z,8.33
2016-11-20T08:18:56.601Z,8.37
2016-11-20T08:19:57.422Z,8.4
2016-11-20T08:20:57.380Z,8.34
2016-11-20T08:21:57.338Z,8.3
2016-11-20T08:22:56.684Z,8.32
2016-11-20T08:23:57.170Z,8.32
2016-11-20T08:24:57.285Z,8.34
2016-11-20T08:25:57.283Z,8.32
2016-11-20T08:26:57.238Z,8.34
2016-11-20T08:27:56.485Z,8.39
2016-11-20T08:28:57.195Z,8.4
2016-11-20T08:29:57.205Z,8.42
2016-11-20T08:30:56.128Z,8.4
2016-11-20T08:31:56.590Z,8.4
2016-11-20T08:32:56.031Z,8.4
2016-11-20T08:33:56.480Z,8.4
2016-11-20T08:34:56.327Z,8.34
2016-11-20T08:35:56.404Z,8.29
2016-11-20T08:36:55.961Z,8.22
2016-11-20T08:37:56.565Z,8.12
2016-11-20T08:38:56.945Z,8.09
2016-11-20T08:39:56.914Z,8.12
2016-11-20T08:40:56.935Z,8.09
2016-11-20T08:41:56.785Z,8.07
2016-11-20T08:42:56.865Z,7.99
2016-11-20T08:43:56.861Z,7.99
2016-11-20T08:44:56.023Z,8
2016-11-20T08:45:56.378Z,7.91
2016-11-20T08:46:55.964Z,7.91
2016-11-20T08:47:56.334Z,7.93
2016-11-20T08:48:56.323Z,7.91
2016-11-20T08:49:56.061Z,7.93
2016-11-20T08:50:56.267Z,7.94
2016-11-20T08:51:55.193Z,7.91
2016-11-20T08:52:55.335Z,7.82
2016-11-20T08:53:55.741Z,7.88
2016-11-20T08:54:55.291Z,7.73
2016-11-20T08:55:56.557Z,7.75
2016-11-20T08:56:55.416Z,7.82
2016-11-20T08:57:56.525Z,7.7
2016-11-20T08:58:55.674Z,7.75
2016-11-20T08:59:56.058Z,7.78
2016-11-20T09:00:56.036Z,7.72
2016-11-20T09:01:55.879Z,7.79
2016-11-20T09:02:55.769Z,7.7
2016-11-20T09:03:56.233Z,7.72
2016-11-20T09:04:56.215Z,7.67
2016-11-20T09:05:56.201Z,7.73
2016-11-20T09:06:55.503Z,7.73
2016-11-20T09:07:55.640Z,7.79
2016-11-20T09:08:56.134Z,7.78
2016-11-20T09:09:56.122Z,7.7
2016-11-20T09:10:55.574Z,7.75
2016-11-20T09:11:56.163Z,7.79
2016-11-20T09:12:55.345Z,7.82
2016-11-20T09:13:54.775Z,7.81
2016-11-20T09:14:55.325Z,7.81
2016-11-20T09:15:56.088Z,7.94
2016-11-20T09:16:56.092Z,7.9
2016-11-20T09:17:55.884Z,7.91
2016-11-20T09:18:56.044Z,8
2016-11-20T09:19:55.996Z,7.99
2016-11-20T09:20:55.252Z,7.94
2016-11-20T09:21:55.941Z,7.93
2016-11-20T09:22:55.921Z,8
2016-11-20T09:23:55.772Z,7.96
2016-11-20T09:24:55.486Z,8.03
2016-11-20T09:25:55.324Z,7.99
2016-11-20T09:26:55.863Z,8.14
2016-11-20T09:27:55.812Z,8.11
2016-11-20T09:28:55.369Z,8.18
2016-11-20T09:29:54.937Z,8.04
2016-11-20T09:30:55.737Z,8.15
2016-11-20T09:31:55.619Z,8.12
2016-11-20T09:32:55.285Z,8.19
2016-11-20T09:33:54.643Z,8.18
2016-11-20T09:34:54.504Z,8.24
2016-11-20T09:35:54.944Z,8.3
2016-11-20T09:36:55.194Z,8.34
2016-11-20T09:37:55.561Z,8.33
2016-11-20T09:38:54.726Z,8.52
2016-11-20T09:39:55.524Z,8.67
2016-11-20T09:40:54.453Z,8.79
2016-11-20T09:41:54.744Z,9.29
2016-11-20T09:42:55.459Z,9.29
2016-11-20T09:43:54.917Z,9.31
2016-11-20T09:44:55.295Z,9.4
2016-11-20T09:45:55.304Z,9.54
2016-11-20T09:46:54.823Z,9.37
2016-11-20T09:47:55.365Z,9.35
2016-11-20T09:48:55.290Z,9.32
2016-11-20T09:49:54.932Z,9.19
2016-11-20T09:50:54.973Z,9.13
2016-11-20T09:51:54.904Z,9.22
2016-11-20T09:52:55.135Z,9.5
2016-11-20T09:53:54.168Z,9.67
2016-11-20T09:54:54.659Z,9.47
2016-11-20T09:55:55.035Z,9.46
2016-11-20T09:56:54.610Z,9.47
2016-11-20T09:57:55.143Z,9.38
2016-11-20T09:58:55.127Z,9.5
2016-11-20T09:59:54.385Z,9.43
2016-11-20T10:00:55.114Z,9.53
2016-11-20T10:01:54.662Z,9.8
2016-11-20T10:02:55.084Z,9.92
2016-11-20T10:03:54.888Z,9.89
2016-11-20T10:04:54.904Z,9.9
2016-11-20T10:05:53.678Z,9.92
2016-11-20T10:06:53.817Z,10.08
2016-11-20T10:07:54.942Z,10.19
2016-11-20T10:08:54.523Z,10.13
2016-11-20T10:09:54.247Z,10.07
2016-11-20T10:10:54.482Z,10.07
2016-11-20T10:11:54.851Z,10.04
2016-11-20T10:12:53.760Z,9.98
2016-11-20T10:13:54.248Z,9.93
2016-11-20T10:14:54.849Z,9.98
2016-11-20T10:15:54.344Z,9.92
2016-11-20T10:16:54.352Z,10.05
2016-11-20T10:17:54.579Z,10
2016-11-20T10:18:54.032Z,10.11
2016-11-20T10:19:54.655Z,10.13
2016-11-20T10:20:54.645Z,10.43
2016-11-20T10:21:53.505Z,11
2016-11-20T10:22:53.544Z,10.93
2016-11-20T10:23:54.034Z,10.8
2016-11-20T10:24:53.928Z,10.89
2016-11-20T10:25:54.542Z,10.85
2016-11-20T10:26:53.455Z,11.02
2016-11-20T10:27:53.205Z,11.35
2016-11-20T10:28:54.515Z,11.2
2016-11-20T10:29:53.835Z,11.79
2016-11-20T10:30:54.304Z,11.89
2016-11-20T10:31:53.789Z,11.95
2016-11-20T10:32:54.474Z,12.32
2016-11-20T10:33:54.255Z,12.34
2016-11-20T10:34:54.488Z,12.16
2016-11-20T10:35:54.354Z,11.91
2016-11-20T10:36:53.608Z,11.72
2016-11-20T10:37:53.179Z,11.6
2016-11-20T10:38:53.680Z,11.42
2016-11-20T10:39:53.232Z,11.17
2016-11-20T10:40:54.253Z,11.11
2016-11-20T10:41:53.584Z,11.06
2016-11-20T10:42:54.235Z,11.21
2016-11-20T10:43:54.194Z,11.28
2016-11-20T10:44:53.696Z,11.47
2016-11-20T10:45:53.770Z,12.03
2016-11-20T10:46:52.996Z,11.58
2016-11-20T10:47:53.086Z,11.48
2016-11-20T10:48:53.597Z,11.31
2016-11-20T10:49:53.704Z,11.33
2016-11-20T10:50:54.134Z,11.21
2016-11-20T10:51:54.074Z,11.18
2016-11-20T10:52:53.384Z,11.18
2016-11-20T10:53:53.362Z,11.17
2016-11-20T10:54:53.905Z,11.18
2016-11-20T10:55:53.326Z,11.28
2016-11-20T10:56:53.310Z,11.33
2016-11-20T10:57:53.523Z,11.28
2016-11-20T10:58:54.020Z,11.24
2016-11-20T10:59:53.120Z,11.31
2016-11-20T11:00:52.816Z,11.06
2016-11-20T11:01:53.885Z,11.13
2016-11-20T11:02:53.925Z,11.24
2016-11-20T11:03:53.427Z,11.15
2016-11-20T11:04:53.082Z,11.31
2016-11-20T11:05:53.045Z,11.35
2016-11-20T11:06:53.277Z,11.4
2016-11-20T11:07:53.025Z,11.56
2016-11-20T11:08:52.706Z,11.5
2016-11-20T11:09:53.276Z,11.53
2016-11-20T11:10:53.157Z,11.58
2016-11-20T11:11:53.525Z,11.58
2016-11-20T11:12:53.626Z,11.64
2016-11-20T11:13:53.585Z,11.47
2016-11-20T11:14:53.656Z,11.54
2016-11-20T11:15:52.925Z,11.6
2016-11-20T11:16:52.920Z,11.71
2016-11-20T11:17:52.834Z,12.2
2016-11-20T11:18:53.225Z,12.85
2016-11-20T11:19:53.519Z,13.22
2016-11-20T11:20:52.774Z,13.25
2016-11-20T11:21:53.105Z,13.29
2016-11-20T11:22:53.465Z,13.48
2016-11-20T11:23:53.013Z,13.42
2016-11-20T11:24:53.098Z,13.47
2016-11-20T11:25:53.000Z,13.22
2016-11-20T11:26:52.725Z,12.83
2016-11-20T11:27:52.955Z,12.78
2016-11-20T11:28:53.336Z,12.61
2016-11-20T11:29:53.186Z,12.81
2016-11-20T11:30:52.713Z,13.14
2016-11-20T11:31:52.576Z,12.86
2016-11-20T11:32:52.639Z,12.96
2016-11-20T11:33:52.421Z,13.01
2016-11-20T11:34:52.595Z,12.96
2016-11-20T11:35:53.212Z,13.25
2016-11-20T11:36:52.796Z,13.59
2016-11-20T11:37:52.812Z,13.35
2016-11-20T11:38:52.622Z,13.38
2016-11-20T11:39:53.156Z,13.72
2016-11-20T11:40:52.577Z,13.97
2016-11-20T11:41:52.297Z,13.84
2016-11-20T11:42:52.267Z,13.62
2016-11-20T11:43:52.918Z,13.49
2016-11-20T11:44:52.646Z,13.38
2016-11-20T11:45:52.926Z,13.4
2016-11-20T11:46:52.894Z,13.19
2016-11-20T11:47:52.357Z,13
2016-11-20T11:48:52.345Z,13.14
2016-11-20T11:49:52.569Z,13.06
2016-11-20T11:50:52.797Z,13.08
2016-11-20T11:51:52.946Z,13.01
2016-11-20T11:52:53.001Z,13.01
2016-11-20T11:53:52.749Z,12.96
2016-11-20T11:54:52.478Z,13.01
2016-11-20T11:55:52.127Z,12.96
2016-11-20T11:56:52.908Z,13.01
2016-11-20T11:57:51.671Z,12.85
2016-11-20T11:58:51.507Z,12.83
2016-11-20T11:59:52.161Z,12.83
2016-11-20T12:00:52.350Z,12.78
2016-11-20T12:01:52.389Z,12.82
2016-11-20T12:02:52.740Z,12.85
2016-11-20T12:03:52.569Z,12.85
2016-11-20T12:04:51.538Z,12.83
2016-11-20T12:05:52.663Z,12.79
2016-11-20T12:06:51.630Z,12.85
2016-11-20T12:07:52.082Z,12.83
2016-11-20T12:08:52.594Z,12.83
2016-11-20T12:09:52.577Z,12.79
2016-11-20T12:10:52.614Z,12.86
2016-11-20T12:11:52.153Z,12.85
2016-11-20T12:12:52.143Z,12.86
2016-11-20T12:13:52.111Z,12.89
2016-11-20T12:14:51.828Z,12.98
2016-11-20T12:15:52.459Z,12.96
2016-11-20T12:16:52.371Z,12.98
2016-11-20T12:17:51.699Z,13.16
2016-11-20T12:18:51.356Z,13.06
2016-11-20T12:19:52.473Z,13.08
2016-11-20T12:20:52.361Z,13.19
2016-11-20T12:21:51.612Z,13.29
2016-11-20T12:22:52.371Z,13.35
2016-11-20T12:23:52.372Z,13.45
2016-11-20T12:24:51.824Z,13.49
2016-11-20T12:25:51.215Z,13.55
2016-11-20T12:26:51.643Z,13.56
2016-11-20T12:27:50.870Z,13.59
2016-11-20T12:28:52.530Z,13.6
2016-11-20T12:29:52.221Z,13.63
2016-11-20T12:30:52.215Z,13.81
2016-11-20T12:31:51.506Z,13.81
2016-11-20T12:32:51.745Z,13.88
2016-11-20T12:33:51.472Z,13.88
2016-11-20T12:34:51.297Z,13.84
2016-11-20T12:35:52.094Z,13.8
2016-11-20T12:36:51.948Z,13.78
2016-11-20T12:37:52.070Z,13.88
2016-11-20T12:38:50.748Z,13.81
2016-11-20T12:39:51.020Z,13.93
2016-11-20T12:40:52.012Z,14
2016-11-20T12:41:51.365Z,14
2016-11-20T12:42:51.843Z,13.97
2016-11-20T12:43:51.524Z,14.1
2016-11-20T12:44:51.492Z,14.1
2016-11-20T12:45:51.277Z,14.1
2016-11-20T12:46:51.485Z,14.13
2016-11-20T12:47:51.448Z,14.18
2016-11-20T12:48:51.224Z,14.13
2016-11-20T12:49:51.031Z,14.17
2016-11-20T12:50:51.031Z,14.22
2016-11-20T12:51:50.742Z,14.25
2016-11-20T12:52:50.959Z,14.3
2016-11-20T12:53:51.771Z,14.44
2016-11-20T12:54:51.728Z,14.35
2016-11-20T12:55:51.600Z,14.44
2016-11-20T12:56:51.458Z,14.44
2016-11-20T12:57:51.729Z,14.44
2016-11-20T12:58:51.561Z,14.33
2016-11-20T12:59:51.241Z,14.42
2016-11-20T13:00:51.248Z,14.39
2016-11-20T13:01:50.783Z,14.32
2016-11-20T13:02:50.761Z,14.47
2016-11-20T13:03:51.417Z,14.46
2016-11-20T13:04:51.591Z,14.42
2016-11-20T13:05:51.000Z,14.4
2016-11-20T13:06:50.711Z,14.47
2016-11-20T13:07:51.102Z,14.42
2016-11-20T13:08:51.094Z,14.44
2016-11-20T13:09:50.400Z,14.36
2016-11-20T13:10:51.305Z,14.38
2016-11-20T13:11:51.089Z,14.42
2016-11-20T13:12:50.362Z,14.38
2016-11-20T13:13:51.389Z,14.44
2016-11-20T13:14:50.738Z,14.39
2016-11-20T13:15:51.340Z,14.38